createdAt,value
2019-04-16T00:00:53.098Z,3.36
2019-04-16T00:03:24.033Z,3.34
2019-04-16T00:05:58.924Z,3.34
2019-04-16T00:08:33.750Z,3.30
2019-04-16T00:11:24.436Z,3.31
2019-04-16T00:14:06.162Z,3.18
2019-04-16T00:16:37.134Z,3.15
2019-04-16T00:19:08.052Z,3.11
2019-04-16T00:21:56.481Z,3.14
2019-04-16T00:24:29.038Z,3.13
2019-04-16T00:27:00.105Z,3.12
2019-04-16T00:29:33.051Z,3.12
2019-04-16T00:32:09.170Z,3.11
2019-04-16T00:34:38.873Z,3.10
2019-04-16T00:37:09.753Z,3.08
2019-04-16T00:39:41.438Z,3.08
2019-04-16T00:42:12.324Z,3.09
2019-04-16T00:44:44.125Z,3.02
2019-04-16T00:47:15.050Z,3.02
2019-04-16T00:49:45.964Z,3.03
2019-04-16T00:52:16.846Z,3.02
2019-04-16T00:54:48.552Z,3.04
2019-04-16T00:57:19.435Z,3.05
2019-04-16T00:59:55.071Z,3.07
2019-04-16T01:02:22.970Z,3.01
2019-04-16T01:04:53.886Z,3.05
2019-04-16T01:07:24.772Z,3.05
2019-04-16T01:09:55.697Z,3.07
2019-04-16T01:12:26.594Z,3.10
2019-04-16T01:15:00.578Z,3.11
2019-04-16T01:17:30.107Z,3.13
2019-04-16T01:20:01.024Z,3.14
2019-04-16T01:22:31.921Z,3.14
2019-04-16T01:25:02.834Z,3.18
2019-04-16T01:27:35.368Z,3.20
2019-04-16T01:30:08.892Z,3.23
2019-04-16T01:32:42.723Z,3.28
2019-04-16T01:35:18.659Z,3.32
2019-04-16T01:38:06.316Z,3.36
2019-04-16T01:40:41.965Z,3.40
2019-04-16T01:43:12.849Z,3.42
2019-04-16T01:45:43.877Z,3.45
2019-04-16T01:48:14.769Z,3.51
2019-04-16T01:50:55.778Z,3.56
2019-04-16T01:53:26.669Z,3.60
2019-04-16T01:55:57.736Z,3.64
2019-04-16T01:58:33.553Z,3.64
2019-04-16T02:01:02.102Z,3.67
2019-04-16T02:03:33.001Z,3.65
2019-04-16T02:06:03.916Z,3.57
2019-04-16T02:08:34.810Z,3.45
2019-04-16T02:11:09.584Z,3.48
2019-04-16T02:13:38.316Z,3.58
2019-04-16T02:16:09.349Z,3.63
2019-04-16T02:18:40.232Z,3.71
2019-04-16T02:21:11.390Z,3.76
2019-04-16T02:23:42.390Z,3.82
2019-04-16T02:26:13.308Z,3.87
2019-04-16T02:28:44.203Z,3.92
2019-04-16T02:31:16.287Z,3.91
2019-04-16T02:33:47.405Z,3.92
2019-04-16T02:36:18.336Z,3.95
2019-04-16T02:38:53.430Z,3.99
2019-04-16T02:41:24.515Z,3.97
2019-04-16T02:43:55.244Z,4.01
2019-04-16T02:46:32.095Z,4.04
2019-04-16T02:49:00.598Z,4.06
2019-04-16T02:51:39.861Z,4.05
2019-04-16T02:54:10.387Z,4.07
2019-04-16T02:56:42.944Z,4.07
2019-04-16T02:59:15.488Z,4.08
2019-04-16T03:01:49.426Z,4.08
2019-04-16T03:04:27.033Z,4.09
2019-04-16T03:07:02.763Z,4.07
2019-04-16T03:09:31.006Z,4.07
2019-04-16T03:12:01.937Z,4.04
2019-04-16T03:14:32.835Z,4.02
2019-04-16T03:17:12.119Z,3.99
2019-04-16T03:19:44.653Z,3.95
2019-04-16T03:22:15.574Z,3.90
2019-04-16T03:24:46.463Z,3.87
2019-04-16T03:27:21.939Z,3.80
2019-04-16T03:29:49.970Z,3.77
2019-04-16T03:33:09.031Z,3.71
2019-04-16T03:35:15.464Z,3.64
2019-04-16T03:37:46.552Z,3.57
2019-04-16T03:40:18.951Z,3.52
2019-04-16T03:42:51.046Z,3.47
2019-04-16T03:45:22.003Z,3.44
2019-04-16T03:47:53.911Z,3.41
2019-04-16T03:50:24.845Z,3.39
2019-04-16T03:52:55.784Z,3.36
2019-04-16T03:55:26.683Z,3.33
2019-04-16T03:57:57.570Z,3.32
2019-04-16T04:00:29.310Z,3.31
2019-04-16T04:03:00.204Z,3.32
2019-04-16T04:05:34.973Z,3.31
2019-04-16T04:08:04.910Z,3.37
2019-04-16T04:10:37.096Z,3.41
2019-04-16T04:13:08.408Z,3.46
2019-04-16T04:15:39.330Z,3.49
2019-04-16T04:18:11.705Z,3.60
2019-04-16T04:20:42.956Z,3.71
2019-04-16T04:23:13.848Z,3.90
2019-04-16T04:25:44.782Z,4.54
2019-04-16T04:28:18.561Z,4.54
2019-04-16T04:30:48.883Z,4.88
2019-04-16T04:33:40.692Z,5.18
2019-04-16T04:36:10.222Z,5.45
2019-04-16T04:38:41.273Z,5.80
2019-04-16T04:41:12.115Z,6.14
2019-04-16T04:43:43.780Z,6.50
2019-04-16T04:46:15.609Z,6.89
2019-04-16T04:48:46.671Z,7.31
2019-04-16T04:51:18.664Z,7.76
2019-04-16T04:53:50.366Z,8.18
2019-04-16T04:56:22.309Z,8.58
2019-04-16T04:58:53.165Z,8.99
2019-04-16T05:01:27.852Z,9.36
2019-04-16T05:04:03.207Z,9.73
2019-04-16T05:06:39.696Z,10.04
2019-04-16T05:09:10.591Z,9.95
2019-04-16T05:11:41.524Z,10.05
2019-04-16T05:14:12.431Z,10.04
2019-04-16T05:16:43.428Z,10.32
2019-04-16T05:19:15.620Z,10.40
2019-04-16T05:21:50.045Z,10.78
2019-04-16T05:24:20.102Z,10.89
2019-04-16T05:26:51.032Z,11.09
2019-04-16T05:29:21.928Z,11.15
2019-04-16T05:31:54.437Z,11.35
2019-04-16T05:34:25.460Z,11.40
2019-04-16T05:36:57.352Z,11.55
2019-04-16T05:39:28.604Z,11.36
2019-04-16T05:41:59.647Z,11.39
2019-04-16T05:44:34.026Z,11.33
2019-04-16T05:47:05.017Z,11.42
2019-04-16T05:49:35.922Z,11.68
2019-04-16T05:52:07.877Z,11.52
2019-04-16T05:54:41.507Z,11.61
2019-04-16T05:57:17.634Z,12.04
2019-04-16T05:59:48.588Z,11.83
2019-04-16T06:02:21.165Z,11.30
2019-04-16T06:04:55.639Z,11.73
2019-04-16T06:07:25.808Z,11.68
2019-04-16T06:09:56.654Z,11.85
2019-04-16T06:12:32.396Z,12.23
2019-04-16T06:15:06.418Z,12.20
2019-04-16T06:17:55.386Z,12.35
2019-04-16T06:20:27.928Z,11.76
2019-04-16T06:23:07.130Z,11.54
2019-04-16T06:25:45.626Z,11.34
2019-04-16T06:28:33.395Z,11.21
2019-04-16T06:31:09.916Z,11.26
2019-04-16T06:33:40.176Z,11.26
2019-04-16T06:36:15.569Z,11.24
2019-04-16T06:38:49.052Z,11.41
2019-04-16T06:41:41.896Z,10.99
2019-04-16T06:44:13.891Z,11.34
2019-04-16T06:46:49.133Z,11.12
2019-04-16T06:49:22.394Z,11.13
2019-04-16T06:51:59.680Z,11.03
2019-04-16T06:54:36.194Z,10.99
2019-04-16T06:57:14.974Z,11.16
2019-04-16T07:00:02.257Z,11.08
2019-04-16T07:03:01.738Z,11.33
2019-04-16T07:05:40.883Z,11.51
2019-04-16T07:08:19.956Z,11.26
2019-04-16T07:10:58.628Z,11.33
2019-04-16T07:13:29.519Z,11.34
2019-04-16T07:16:00.427Z,11.42
2019-04-16T07:18:31.246Z,11.63
2019-04-16T07:21:02.165Z,11.48
2019-04-16T07:23:33.074Z,11.65
2019-04-16T07:26:04.511Z,11.92
2019-04-16T07:28:40.234Z,12.05
2019-04-16T07:31:32.933Z,11.95
2019-04-16T07:34:04.813Z,12.08
2019-04-16T07:36:37.376Z,12.46
2019-04-16T07:39:13.550Z,12.36
2019-04-16T07:41:50.825Z,12.19
2019-04-16T07:44:26.310Z,11.55
2019-04-16T07:46:59.683Z,11.50
2019-04-16T07:49:41.152Z,11.87
2019-04-16T07:52:13.697Z,11.61
2019-04-16T07:55:01.416Z,11.69
2019-04-16T07:57:32.602Z,11.86
2019-04-16T08:00:08.183Z,11.80
2019-04-16T08:02:36.465Z,11.96
2019-04-16T08:05:09.172Z,11.88
2019-04-16T08:07:40.378Z,12.13
2019-04-16T08:10:11.766Z,12.30
2019-04-16T08:12:45.199Z,12.15
2019-04-16T08:15:16.088Z,12.44
2019-04-16T08:17:46.999Z,12.24
2019-04-16T08:20:21.026Z,12.19
2019-04-16T08:22:52.233Z,12.21
2019-04-16T08:25:33.523Z,12.08
2019-04-16T08:28:06.913Z,11.85
2019-04-16T08:30:39.483Z,11.60
2019-04-16T08:33:11.130Z,11.47
2019-04-16T08:35:41.869Z,11.67
2019-04-16T08:38:12.796Z,11.74
2019-04-16T08:40:46.325Z,11.53
2019-04-16T08:43:17.247Z,11.65
2019-04-16T08:45:48.135Z,11.58
2019-04-16T08:48:19.828Z,11.02
2019-04-16T08:50:50.776Z,10.72
2019-04-16T08:53:21.702Z,10.73
2019-04-16T08:55:52.584Z,10.51
2019-04-16T08:58:25.049Z,10.51
2019-04-16T09:00:56.014Z,10.38
2019-04-16T09:03:30.090Z,10.24
2019-04-16T09:05:59.522Z,10.30
2019-04-16T09:08:44.338Z,10.22
2019-04-16T09:11:23.197Z,10.10
2019-04-16T09:13:50.466Z,10.29
2019-04-16T09:16:21.408Z,10.36
2019-04-16T09:18:53.986Z,10.30
2019-04-16T09:21:27.785Z,10.38
2019-04-16T09:24:17.522Z,10.48
2019-04-16T09:26:59.057Z,10.45
2019-04-16T09:29:41.372Z,10.60
2019-04-16T09:32:30.060Z,10.33
2019-04-16T09:35:19.893Z,10.32
2019-04-16T09:37:58.118Z,10.29
2019-04-16T09:40:33.591Z,10.21
2019-04-16T09:43:16.488Z,10.24
2019-04-16T09:45:39.635Z,10.27
2019-04-16T09:48:10.510Z,10.41
2019-04-16T09:50:46.358Z,10.51
2019-04-16T09:53:14.783Z,10.61
2019-04-16T09:55:47.657Z,10.72
2019-04-16T09:58:25.702Z,10.73
2019-04-16T10:00:59.138Z,10.70
2019-04-16T10:03:39.466Z,10.63
2019-04-16T10:06:10.448Z,10.75
2019-04-16T10:08:44.562Z,10.69
2019-04-16T10:11:13.946Z,10.69
2019-04-16T10:13:44.868Z,10.80
2019-04-16T10:16:17.442Z,10.78
2019-04-16T10:18:48.391Z,10.85
2019-04-16T10:21:20.342Z,10.82
2019-04-16T10:24:01.862Z,10.90
2019-04-16T10:26:32.839Z,10.89
2019-04-16T10:29:06.079Z,10.98
2019-04-16T10:31:38.104Z,11.07
2019-04-16T10:34:08.997Z,11.22
2019-04-16T10:36:39.943Z,11.18
2019-04-16T10:39:15.432Z,11.20
2019-04-16T10:41:56.414Z,11.19
2019-04-16T10:44:43.271Z,11.29
2019-04-16T10:47:35.603Z,11.18
2019-04-16T10:50:26.101Z,11.19
2019-04-16T10:53:04.826Z,11.27
2019-04-16T10:55:40.067Z,10.77
2019-04-16T10:58:15.635Z,10.81
2019-04-16T11:00:48.145Z,10.90
2019-04-16T11:03:34.782Z,10.95
2019-04-16T11:06:08.010Z,10.88
2019-04-16T11:08:39.196Z,10.81
2019-04-16T11:11:10.321Z,10.90
2019-04-16T11:13:59.149Z,10.84
2019-04-16T11:16:18.722Z,10.65
2019-04-16T11:18:50.631Z,10.68
2019-04-16T11:21:21.517Z,10.67
2019-04-16T11:23:52.430Z,10.68
2019-04-16T11:26:23.318Z,10.66
2019-04-16T11:28:54.243Z,10.54
2019-04-16T11:31:26.495Z,10.49
2019-04-16T11:33:58.304Z,10.54
2019-04-16T11:36:30.977Z,10.51
2019-04-16T11:39:01.821Z,10.55
2019-04-16T11:41:32.716Z,10.79
2019-04-16T11:44:15.099Z,10.69
2019-04-16T11:46:36.372Z,10.82
2019-04-16T11:49:08.265Z,10.69
2019-04-16T11:51:39.996Z,10.52
2019-04-16T11:54:11.937Z,10.50
2019-04-16T11:56:44.895Z,10.46
2019-04-16T11:59:15.860Z,10.15
2019-04-16T12:01:57.464Z,10.25
2019-04-16T12:04:33.507Z,10.20
2019-04-16T12:07:06.420Z,10.10
2019-04-16T12:09:39.104Z,9.81
2019-04-16T12:12:11.602Z,9.88
2019-04-16T12:14:53.429Z,9.91
2019-04-16T12:17:31.924Z,9.81
2019-04-16T12:20:11.213Z,9.72
2019-04-16T12:22:46.769Z,9.92
2019-04-16T12:25:22.358Z,9.94
2019-04-16T12:28:12.482Z,9.99
2019-04-16T12:30:52.989Z,9.91
2019-04-16T12:33:34.714Z,10.05
2019-04-16T12:36:12.798Z,10.08
2019-04-16T12:38:59.103Z,10.20
2019-04-16T12:41:31.718Z,10.13
2019-04-16T12:44:24.282Z,10.17
2019-04-16T12:47:11.019Z,10.30
2019-04-16T12:49:58.811Z,10.17
2019-04-16T12:52:38.181Z,10.21
2019-04-16T12:55:31.341Z,10.03
2019-04-16T12:58:07.188Z,10.05
2019-04-16T13:00:42.650Z,9.95
2019-04-16T13:03:32.155Z,9.92
2019-04-16T13:06:16.744Z,9.96
2019-04-16T13:09:06.477Z,9.88
2019-04-16T13:11:48.121Z,10.03
2019-04-16T13:14:32.945Z,10.09
2019-04-16T13:17:18.769Z,10.00
2019-04-16T13:20:07.275Z,9.77
2019-04-16T13:22:42.543Z,9.48
2019-04-16T13:25:21.656Z,9.49
2019-04-16T13:27:53.369Z,9.59
2019-04-16T13:30:24.302Z,9.49
2019-04-16T13:32:55.214Z,9.56
2019-04-16T13:35:26.157Z,9.57
2019-04-16T13:37:57.070Z,9.57
2019-04-16T13:40:28.915Z,9.63
2019-04-16T13:43:01.672Z,9.60
2019-04-16T13:45:37.163Z,9.54
2019-04-16T13:48:16.578Z,9.65
2019-04-16T13:50:44.057Z,9.65
2019-04-16T13:53:22.857Z,9.62
2019-04-16T13:56:11.343Z,9.56
2019-04-16T13:58:43.910Z,9.45
2019-04-16T14:01:19.476Z,9.34
2019-04-16T14:03:50.388Z,9.30
2019-04-16T14:06:21.330Z,9.14
2019-04-16T14:08:52.255Z,9.22
2019-04-16T14:11:24.208Z,9.29
2019-04-16T14:13:55.128Z,9.24
2019-04-16T14:16:26.058Z,9.18
2019-04-16T14:18:56.968Z,9.32
2019-04-16T14:21:27.898Z,9.13
2019-04-16T14:23:59.108Z,9.20
2019-04-16T14:26:30.938Z,9.09
2019-04-16T14:29:05.561Z,9.12
2019-04-16T14:31:34.530Z,9.28
2019-04-16T14:34:10.012Z,9.05
2019-04-16T14:36:40.960Z,8.92
2019-04-16T14:39:16.575Z,8.93
2019-04-16T14:41:50.300Z,9.00
2019-04-16T14:44:23.267Z,9.03
2019-04-16T14:46:54.272Z,9.12
2019-04-16T14:49:25.176Z,9.09
2019-04-16T14:51:58.146Z,9.07
2019-04-16T14:54:40.294Z,9.19
2019-04-16T14:57:12.968Z,9.13
2019-04-16T15:00:03.635Z,9.19
2019-04-16T15:02:48.290Z,9.03
2019-04-16T15:05:38.910Z,9.00
2019-04-16T15:08:14.274Z,9.11
2019-04-16T15:10:53.474Z,9.03
2019-04-16T15:13:32.888Z,8.98
2019-04-16T15:16:13.465Z,8.80
2019-04-16T15:18:45.377Z,8.85
2019-04-16T15:21:20.665Z,8.89
2019-04-16T15:23:53.246Z,8.90
2019-04-16T15:26:37.663Z,8.84
2019-04-16T15:29:13.818Z,8.81
2019-04-16T15:31:52.346Z,8.74
2019-04-16T15:34:24.931Z,8.68
2019-04-16T15:36:57.488Z,8.83
2019-04-16T15:39:35.364Z,8.64
2019-04-16T15:42:16.362Z,8.59
2019-04-16T15:44:49.027Z,8.65
2019-04-16T15:47:27.299Z,8.62
2019-04-16T15:50:05.849Z,8.60
2019-04-16T15:52:50.650Z,8.59
2019-04-16T15:55:36.963Z,8.67
2019-04-16T15:58:12.714Z,8.60
2019-04-16T16:00:46.142Z,8.50
2019-04-16T16:03:27.684Z,8.45
2019-04-16T16:06:04.126Z,8.37
2019-04-16T16:08:51.758Z,8.34
2019-04-16T16:11:24.357Z,8.25
2019-04-16T16:13:56.655Z,8.30
2019-04-16T16:16:41.110Z,8.52
2019-04-16T16:19:01.433Z,8.52
2019-04-16T16:21:33.214Z,8.38
2019-04-16T16:24:07.590Z,8.35
2019-04-16T16:26:36.775Z,8.32
2019-04-16T16:29:07.696Z,8.19
2019-04-16T16:31:39.538Z,8.16
2019-04-16T16:34:10.462Z,8.18
2019-04-16T16:36:41.455Z,8.12
2019-04-16T16:39:12.407Z,8.12
2019-04-16T16:41:46.323Z,8.10
2019-04-16T16:44:15.977Z,8.08
2019-04-16T16:46:58.939Z,8.16
2019-04-16T16:49:30.072Z,7.86
2019-04-16T16:52:19.821Z,7.92
2019-04-16T16:54:52.390Z,7.86
2019-04-16T16:57:25.940Z,7.89
2019-04-16T17:00:13.847Z,7.93
2019-04-16T17:02:47.274Z,7.85
2019-04-16T17:05:19.840Z,7.78
2019-04-16T17:07:53.509Z,7.73
2019-04-16T17:10:23.410Z,7.78
2019-04-16T17:12:54.376Z,7.81
2019-04-16T17:15:25.299Z,7.80
2019-04-16T17:17:57.158Z,7.78
2019-04-16T17:20:28.153Z,7.82
2019-04-16T17:22:59.174Z,7.86
2019-04-16T17:25:36.561Z,7.88
2019-04-16T17:28:02.769Z,7.86
2019-04-16T17:30:33.758Z,7.92
2019-04-16T17:33:05.668Z,7.88
2019-04-16T17:35:36.583Z,7.88
2019-04-16T17:38:07.600Z,7.82
2019-04-16T17:40:51.111Z,7.85
2019-04-16T17:43:29.201Z,7.83
2019-04-16T17:46:01.773Z,7.84
2019-04-16T17:48:34.394Z,7.72
2019-04-16T17:51:10.060Z,7.74
2019-04-16T17:53:45.643Z,7.80
2019-04-16T17:56:34.526Z,7.83
2019-04-16T17:59:08.785Z,7.82
2019-04-16T18:01:53.412Z,7.87
2019-04-16T18:04:33.075Z,7.83
2019-04-16T18:07:08.646Z,7.87
2019-04-16T18:10:01.528Z,7.85
2019-04-16T18:12:55.142Z,7.72
2019-04-16T18:15:44.423Z,7.73
2019-04-16T18:18:17.377Z,7.77
2019-04-16T18:20:59.218Z,7.69
2019-04-16T18:23:36.859Z,7.69
2019-04-16T18:26:21.727Z,7.60
2019-04-16T18:29:06.547Z,7.66
2019-04-16T18:31:41.869Z,7.66
2019-04-16T18:34:20.453Z,7.57
2019-04-16T18:37:09.173Z,7.58
2019-04-16T18:39:41.744Z,7.62
2019-04-16T18:42:26.524Z,7.64
2019-04-16T18:45:05.043Z,7.67
2019-04-16T18:47:37.683Z,7.71
2019-04-16T18:50:10.653Z,7.74
2019-04-16T18:52:42.475Z,7.77
2019-04-16T18:55:13.397Z,7.89
2019-04-16T18:57:44.359Z,8.31
2019-04-16T19:00:28.751Z,8.19
2019-04-16T19:02:59.967Z,8.12
2019-04-16T19:05:30.904Z,7.95
2019-04-16T19:08:02.763Z,7.92
2019-04-16T19:10:33.671Z,7.82
2019-04-16T19:13:09.236Z,7.75
2019-04-16T19:15:37.254Z,7.63
2019-04-16T19:18:19.227Z,7.61
2019-04-16T19:20:41.079Z,7.58
2019-04-16T19:23:12.312Z,7.51
2019-04-16T19:25:43.337Z,7.47
2019-04-16T19:28:14.300Z,7.47
2019-04-16T19:30:45.245Z,7.45
2019-04-16T19:33:16.328Z,7.45
2019-04-16T19:35:50.982Z,7.44
2019-04-16T19:38:21.059Z,7.41
2019-04-16T19:40:52.039Z,7.41
2019-04-16T19:43:23.032Z,7.39
2019-04-16T19:45:54.015Z,7.37
2019-04-16T19:48:35.222Z,7.38
2019-04-16T19:50:57.690Z,7.36
2019-04-16T19:53:30.346Z,7.34
2019-04-16T19:56:01.263Z,7.33
2019-04-16T19:58:32.226Z,7.34
2019-04-16T20:01:04.627Z,7.34
2019-04-16T20:03:35.523Z,7.37
2019-04-16T20:06:08.273Z,7.39
2019-04-16T20:08:39.982Z,7.40
2019-04-16T20:11:12.215Z,7.40
2019-04-16T20:13:43.142Z,7.42
2019-04-16T20:16:14.100Z,7.43
2019-04-16T20:18:51.123Z,7.43
2019-04-16T20:21:17.671Z,7.45
2019-04-16T20:23:48.605Z,7.47
2019-04-16T20:26:20.497Z,7.48
2019-04-16T20:28:51.501Z,7.51
2019-04-16T20:31:22.451Z,7.53
2019-04-16T20:33:53.415Z,7.55
2019-04-16T20:36:24.368Z,7.58
2019-04-16T20:38:55.528Z,7.60
2019-04-16T20:41:27.525Z,7.61
2019-04-16T20:43:59.289Z,7.64
2019-04-16T20:46:30.239Z,7.66
2019-04-16T20:49:09.021Z,7.67
2019-04-16T20:51:33.771Z,7.67
2019-04-16T20:54:05.153Z,7.67
2019-04-16T20:56:40.399Z,7.67
2019-04-16T20:59:09.553Z,7.66
2019-04-16T21:01:42.264Z,7.64
2019-04-16T21:04:13.225Z,7.64
2019-04-16T21:06:44.164Z,7.61
2019-04-16T21:09:15.119Z,7.61
2019-04-16T21:11:46.889Z,7.59
2019-04-16T21:14:18.967Z,7.58
2019-04-16T21:16:50.404Z,7.57
2019-04-16T21:19:23.687Z,7.57
2019-04-16T21:21:56.496Z,7.56
2019-04-16T21:24:27.336Z,7.55
2019-04-16T21:26:59.122Z,7.56
2019-04-16T21:29:34.427Z,7.55
2019-04-16T21:32:09.825Z,7.55
2019-04-16T21:34:40.279Z,7.54
2019-04-16T21:37:30.389Z,7.53
2019-04-16T21:40:03.251Z,7.52
2019-04-16T21:42:34.996Z,7.50
2019-04-16T21:45:07.625Z,7.52
2019-04-16T21:47:38.543Z,7.51
2019-04-16T21:50:09.435Z,7.51
2019-04-16T21:52:40.369Z,7.51
2019-04-16T21:55:11.363Z,7.51
2019-04-16T21:57:45.906Z,7.50
2019-04-16T22:00:17.873Z,7.49
2019-04-16T22:02:51.755Z,7.49
2019-04-16T22:05:22.668Z,7.47
2019-04-16T22:07:53.773Z,7.47
2019-04-16T22:10:26.259Z,7.46
2019-04-16T22:12:58.082Z,7.46
2019-04-16T22:15:28.978Z,7.44
2019-04-16T22:17:59.908Z,7.40
2019-04-16T22:20:31.824Z,7.38
2019-04-16T22:23:03.435Z,7.34
2019-04-16T22:25:34.324Z,7.36
2019-04-16T22:28:11.387Z,7.35
2019-04-16T22:30:38.876Z,7.34
2019-04-16T22:33:09.896Z,7.34
2019-04-16T22:35:40.794Z,7.33
2019-04-16T22:38:14.310Z,7.31
2019-04-16T22:40:51.648Z,7.31
2019-04-16T22:43:23.894Z,7.31
2019-04-16T22:45:56.494Z,7.33
2019-04-16T22:48:27.415Z,7.33
2019-04-16T22:51:09.661Z,7.31
2019-04-16T22:53:36.695Z,7.29
2019-04-16T22:56:07.586Z,7.29
2019-04-16T22:58:43.686Z,7.29
2019-04-16T23:01:14.884Z,7.28
2019-04-16T23:03:49.717Z,7.26
2019-04-16T23:06:19.790Z,7.23
2019-04-16T23:08:50.720Z,7.24
2019-04-16T23:11:23.751Z,7.22
2019-04-16T23:13:54.266Z,7.22
2019-04-16T23:16:25.165Z,7.18
2019-04-16T23:18:56.155Z,7.18
2019-04-16T23:21:27.046Z,7.17
2019-04-16T23:23:57.966Z,7.16
2019-04-16T23:26:32.168Z,7.16
2019-04-16T23:29:01.506Z,7.15
2019-04-16T23:31:32.432Z,7.13
2019-04-16T23:34:06.036Z,7.11
2019-04-16T23:36:36.002Z,7.11
2019-04-16T23:39:08.027Z,7.11
2019-04-16T23:41:38.927Z,7.08
2019-04-16T23:44:28.510Z,7.06
2019-04-16T23:47:17.183Z,7.05
2019-04-16T23:49:55.542Z,7.01
2019-04-16T23:52:28.083Z,6.96
2019-04-16T23:55:06.445Z,6.90
2019-04-16T23:57:56.823Z,6.85
